createdAt,value
2017-02-17T00:00:10.396Z,0
2017-02-17T00:01:19.726Z,0
2017-02-17T00:02:29.568Z,0
2017-02-17T00:03:39.318Z,0
2017-02-17T00:04:48.668Z,0
2017-02-17T00:05:59.234Z,0
2017-02-17T00:07:08.580Z,0
2017-02-17T00:08:17.513Z,0
2017-02-17T00:09:26.853Z,0
2017-02-17T00:10:36.186Z,0
2017-02-17T00:11:45.518Z,0
2017-02-17T00:12:54.851Z,0
2017-02-17T00:14:04.508Z,0
2017-02-17T00:15:13.826Z,0
2017-02-17T00:16:22.751Z,0
2017-02-17T00:17:32.511Z,0
2017-02-17T00:18:41.873Z,0
2017-02-17T00:19:51.439Z,0
2017-02-17T00:21:00.789Z,0
2017-02-17T00:22:09.717Z,0
2017-02-17T00:23:19.070Z,0
2017-02-17T00:24:28.395Z,0
2017-02-17T00:25:37.972Z,0
2017-02-17T00:26:46.887Z,0
2017-02-17T00:27:55.810Z,0
2017-02-17T00:29:05.126Z,0
2017-02-17T00:30:14.056Z,0
2017-02-17T00:31:23.942Z,0
2017-02-17T00:32:33.277Z,0
2017-02-17T00:33:42.204Z,0
2017-02-17T00:34:51.536Z,0
2017-02-17T00:36:00.457Z,0
2017-02-17T00:37:09.495Z,0
2017-02-17T00:38:19.235Z,0
2017-02-17T00:39:29.381Z,0
2017-02-17T00:40:38.299Z,0
2017-02-17T00:41:48.058Z,0
2017-02-17T00:42:57.630Z,0
2017-02-17T00:44:06.947Z,0
2017-02-17T00:45:15.858Z,0
2017-02-17T00:46:24.772Z,0
2017-02-17T00:47:34.101Z,0
2017-02-17T00:48:43.587Z,0
2017-02-17T00:49:52.921Z,0
2017-02-17T00:51:02.255Z,0
2017-02-17T00:52:12.423Z,0
2017-02-17T00:53:21.335Z,0
2017-02-17T00:54:31.932Z,0
2017-02-17T00:55:41.279Z,0
2017-02-17T00:56:50.619Z,0
2017-02-17T00:58:00.354Z,0
2017-02-17T00:59:10.501Z,0
2017-02-17T01:00:20.029Z,0
2017-02-17T01:01:29.365Z,0
2017-02-17T01:02:39.098Z,0
2017-02-17T01:03:48.822Z,0
2017-02-17T01:04:57.757Z,0
2017-02-17T01:06:07.740Z,0
2017-02-17T01:07:16.685Z,0
2017-02-17T01:08:26.413Z,0
2017-02-17T01:09:35.729Z,0
2017-02-17T01:10:45.471Z,0
2017-02-17T01:11:55.666Z,0
2017-02-17T01:13:05.391Z,0
2017-02-17T01:14:14.715Z,0
2017-02-17T01:15:24.041Z,0
2017-02-17T01:16:33.362Z,0
2017-02-17T01:17:43.205Z,0
2017-02-17T01:18:52.975Z,0
2017-02-17T01:20:02.712Z,0
2017-02-17T01:21:12.033Z,0
2017-02-17T01:22:20.941Z,0
2017-02-17T01:23:30.420Z,0
2017-02-17T01:24:39.356Z,0
2017-02-17T01:25:48.696Z,0
2017-02-17T01:26:58.022Z,0
2017-02-17T01:28:07.353Z,0
2017-02-17T01:29:17.656Z,0
2017-02-17T01:30:26.985Z,0
2017-02-17T01:31:36.724Z,0
2017-02-17T01:32:46.466Z,0
2017-02-17T01:33:55.783Z,0
2017-02-17T01:35:05.578Z,0
2017-02-17T01:36:15.305Z,0
2017-02-17T01:37:25.441Z,0
2017-02-17T01:38:35.184Z,0
2017-02-17T01:39:44.506Z,0
2017-02-17T01:40:54.299Z,0
2017-02-17T01:42:04.027Z,0
2017-02-17T01:43:13.362Z,0
2017-02-17T01:44:22.701Z,0
2017-02-17T01:45:31.608Z,0
2017-02-17T01:46:41.497Z,0
2017-02-17T01:47:50.853Z,0
2017-02-17T01:49:00.170Z,0
2017-02-17T01:50:09.903Z,0
2017-02-17T01:51:19.624Z,0
2017-02-17T01:52:29.434Z,0
2017-02-17T01:53:39.161Z,0
2017-02-17T01:54:48.909Z,0
2017-02-17T01:55:58.673Z,0
2017-02-17T01:57:08.397Z,0
2017-02-17T01:58:18.939Z,0
2017-02-17T01:59:28.286Z,0
2017-02-17T02:00:37.629Z,0
2017-02-17T02:01:46.955Z,0
2017-02-17T02:02:56.278Z,0
2017-02-17T02:04:06.120Z,0
2017-02-17T02:05:15.878Z,0
2017-02-17T02:06:25.219Z,0
2017-02-17T02:07:34.126Z,0
2017-02-17T02:08:43.854Z,0
2017-02-17T02:09:52.922Z,0
2017-02-17T02:11:01.828Z,0
2017-02-17T02:12:10.746Z,0
2017-02-17T02:13:20.071Z,0
2017-02-17T02:14:29.831Z,0
2017-02-17T02:15:39.415Z,0
2017-02-17T02:16:49.140Z,0
2017-02-17T02:17:58.458Z,0
2017-02-17T02:19:07.777Z,0
2017-02-17T02:20:17.098Z,0
2017-02-17T02:21:26.020Z,0
2017-02-17T02:22:35.747Z,0
2017-02-17T02:23:45.889Z,0
2017-02-17T02:24:55.204Z,0
2017-02-17T02:26:04.941Z,0
2017-02-17T02:27:14.876Z,0
2017-02-17T02:28:24.195Z,0
2017-02-17T02:29:33.136Z,0
2017-02-17T02:30:43.299Z,0
2017-02-17T02:31:53.864Z,0
2017-02-17T02:33:03.239Z,0
2017-02-17T02:34:12.957Z,0
2017-02-17T02:35:22.696Z,0
2017-02-17T02:36:32.446Z,0
2017-02-17T02:37:42.182Z,0
2017-02-17T02:38:51.642Z,0
2017-02-17T02:40:00.971Z,0
2017-02-17T02:41:09.909Z,0
2017-02-17T02:42:19.225Z,0
2017-02-17T02:43:28.963Z,0
2017-02-17T02:44:38.839Z,0
2017-02-17T02:45:48.163Z,0
2017-02-17T02:46:57.475Z,0
2017-02-17T02:48:07.212Z,0
2017-02-17T02:49:17.349Z,0
2017-02-17T02:50:26.694Z,0
2017-02-17T02:51:35.625Z,0
2017-02-17T02:52:44.940Z,0
2017-02-17T02:53:54.270Z,0
2017-02-17T02:55:04.035Z,0
2017-02-17T02:56:13.064Z,0
2017-02-17T02:57:22.822Z,0
2017-02-17T02:58:32.544Z,0
2017-02-17T02:59:42.277Z,0
2017-02-17T03:00:51.628Z,0
2017-02-17T03:02:01.533Z,0
2017-02-17T03:03:11.272Z,0
2017-02-17T03:04:20.596Z,0
2017-02-17T03:05:29.944Z,0
2017-02-17T03:06:39.289Z,0
2017-02-17T03:07:48.772Z,0
2017-02-17T03:08:58.529Z,0
2017-02-17T03:10:07.864Z,0
2017-02-17T03:11:17.613Z,0
2017-02-17T03:12:26.936Z,0
2017-02-17T03:13:37.270Z,0
2017-02-17T03:14:46.999Z,0
2017-02-17T03:15:56.336Z,0
2017-02-17T03:17:05.249Z,0
2017-02-17T03:18:14.978Z,0
2017-02-17T03:19:24.956Z,0
2017-02-17T03:20:34.280Z,0
2017-02-17T03:21:43.602Z,0
2017-02-17T03:22:54.191Z,0
2017-02-17T03:24:03.949Z,0
2017-02-17T03:25:13.437Z,0
2017-02-17T03:26:23.177Z,0
2017-02-17T03:27:32.111Z,0
2017-02-17T03:28:41.441Z,0
2017-02-17T03:29:50.760Z,0
2017-02-17T03:30:59.874Z,0
2017-02-17T03:32:10.029Z,0
2017-02-17T03:33:19.388Z,0
2017-02-17T03:34:28.714Z,0
2017-02-17T03:35:38.037Z,0
2017-02-17T03:36:47.989Z,0
2017-02-17T03:37:57.304Z,0
2017-02-17T03:39:07.068Z,0
2017-02-17T03:40:16.383Z,0
2017-02-17T03:41:25.317Z,0
2017-02-17T03:42:34.340Z,0
2017-02-17T03:43:44.474Z,0
2017-02-17T03:44:54.617Z,0
2017-02-17T03:46:03.963Z,0
2017-02-17T03:47:13.307Z,0
2017-02-17T03:48:23.199Z,0
2017-02-17T03:49:32.527Z,0
2017-02-17T03:50:41.461Z,0
2017-02-17T03:51:50.377Z,0
2017-02-17T03:52:59.301Z,0
2017-02-17T03:54:08.843Z,0
2017-02-17T03:55:17.754Z,0
2017-02-17T03:56:27.497Z,0
2017-02-17T03:57:36.442Z,0
2017-02-17T03:58:46.997Z,0
2017-02-17T03:59:56.955Z,0
2017-02-17T04:01:06.687Z,0
2017-02-17T04:02:15.596Z,0
2017-02-17T04:03:24.913Z,0
2017-02-17T04:04:34.647Z,0
2017-02-17T04:05:44.535Z,0
2017-02-17T04:06:53.861Z,0
2017-02-17T04:08:02.795Z,0
2017-02-17T04:09:12.114Z,0
2017-02-17T04:10:21.035Z,0
2017-02-17T04:11:30.427Z,0
2017-02-17T04:12:39.744Z,0
2017-02-17T04:13:49.057Z,0
2017-02-17T04:14:58.783Z,0
2017-02-17T04:16:08.126Z,0
2017-02-17T04:17:18.003Z,0
2017-02-17T04:18:27.330Z,0
2017-02-17T04:19:37.067Z,0
2017-02-17T04:20:46.389Z,0
2017-02-17T04:21:55.718Z,0
2017-02-17T04:23:05.503Z,0
2017-02-17T04:24:14.826Z,0
2017-02-17T04:25:23.746Z,0
2017-02-17T04:26:32.687Z,0
2017-02-17T04:27:42.419Z,0
2017-02-17T04:28:51.889Z,0
2017-02-17T04:30:01.629Z,0
2017-02-17T04:31:10.960Z,0
2017-02-17T04:32:19.866Z,0
2017-02-17T04:33:28.782Z,0
2017-02-17T04:34:38.173Z,0
2017-02-17T04:35:48.314Z,0
2017-02-17T04:36:58.448Z,0
2017-02-17T04:38:07.388Z,0
2017-02-17T04:39:17.153Z,0
2017-02-17T04:40:26.139Z,0
2017-02-17T04:41:35.471Z,0
2017-02-17T04:42:44.805Z,0
2017-02-17T04:43:54.532Z,0
2017-02-17T04:45:03.846Z,0
2017-02-17T04:46:13.986Z,0
2017-02-17T04:47:23.298Z,0
2017-02-17T04:48:32.666Z,0
2017-02-17T04:49:42.455Z,0
2017-02-17T04:50:52.611Z,0
2017-02-17T04:52:02.125Z,0
2017-02-17T04:53:11.442Z,0
2017-02-17T04:54:20.350Z,0
2017-02-17T04:55:29.663Z,0
2017-02-17T04:56:38.992Z,0
2017-02-17T04:57:48.409Z,0
2017-02-17T04:58:57.756Z,0
2017-02-17T05:00:06.697Z,0
2017-02-17T05:01:15.629Z,0
2017-02-17T05:02:24.958Z,0
2017-02-17T05:03:34.882Z,0
2017-02-17T05:04:43.787Z,0
2017-02-17T05:05:53.510Z,0
2017-02-17T05:07:02.835Z,0
2017-02-17T05:08:12.568Z,0
2017-02-17T05:09:21.940Z,0
2017-02-17T05:10:31.266Z,0
2017-02-17T05:11:40.992Z,0
2017-02-17T05:12:50.319Z,0
2017-02-17T05:13:59.655Z,0
2017-02-17T05:15:09.124Z,0
2017-02-17T05:16:18.858Z,0
2017-02-17T05:17:28.585Z,0
2017-02-17T05:18:37.513Z,0
2017-02-17T05:19:47.253Z,0
2017-02-17T05:20:56.644Z,0
2017-02-17T05:22:06.395Z,0
2017-02-17T05:23:16.541Z,0
2017-02-17T05:24:25.467Z,0
2017-02-17T05:25:35.204Z,0
2017-02-17T05:26:44.696Z,0
2017-02-17T05:27:54.042Z,0
2017-02-17T05:29:02.978Z,0
2017-02-17T05:30:11.906Z,0
2017-02-17T05:31:21.290Z,0
2017-02-17T05:32:30.720Z,0
2017-02-17T05:33:40.053Z,0
2017-02-17T05:34:49.781Z,0
2017-02-17T05:35:59.518Z,0
2017-02-17T05:37:08.442Z,0
2017-02-17T05:38:18.325Z,0
2017-02-17T05:39:28.054Z,0
2017-02-17T05:40:37.778Z,0
2017-02-17T05:41:46.691Z,0
2017-02-17T05:42:56.035Z,0
2017-02-17T05:44:06.416Z,0
2017-02-17T05:45:16.142Z,0
2017-02-17T05:46:25.464Z,0
2017-02-17T05:47:34.810Z,0
2017-02-17T05:48:44.127Z,0
2017-02-17T05:49:54.275Z,0
2017-02-17T05:51:04.013Z,0
2017-02-17T05:52:13.347Z,0
2017-02-17T05:53:22.681Z,0
2017-02-17T05:54:31.619Z,0
2017-02-17T05:55:40.993Z,0
2017-02-17T05:56:50.735Z,0
2017-02-17T05:58:00.055Z,0
2017-02-17T05:59:08.972Z,0
2017-02-17T06:00:18.759Z,0
2017-02-17T06:01:28.964Z,0
2017-02-17T06:02:37.925Z,0
2017-02-17T06:03:47.276Z,0
2017-02-17T06:04:56.618Z,0
2017-02-17T06:06:05.931Z,0
2017-02-17T06:07:14.988Z,0
2017-02-17T06:08:23.895Z,0
2017-02-17T06:09:32.819Z,0
2017-02-17T06:10:42.570Z,0
2017-02-17T06:11:51.501Z,0
2017-02-17T06:13:01.033Z,0
2017-02-17T06:14:09.968Z,0
2017-02-17T06:15:19.301Z,0
2017-02-17T06:16:29.067Z,0
2017-02-17T06:17:37.993Z,0
2017-02-17T06:18:47.576Z,0
2017-02-17T06:19:56.924Z,0
2017-02-17T06:21:06.669Z,0
2017-02-17T06:22:16.821Z,0
2017-02-17T06:23:25.741Z,0
2017-02-17T06:24:35.532Z,0
2017-02-17T06:25:44.457Z,0
2017-02-17T06:26:54.645Z,0
2017-02-17T06:28:03.983Z,0
2017-02-17T06:29:13.332Z,0
2017-02-17T06:30:22.236Z,0
2017-02-17T06:31:31.972Z,0
2017-02-17T06:32:41.291Z,0
2017-02-17T06:33:50.626Z,0
2017-02-17T06:34:59.579Z,0
2017-02-17T06:36:08.893Z,0
2017-02-17T06:37:17.813Z,0
2017-02-17T06:38:26.731Z,0
2017-02-17T06:39:36.073Z,0
2017-02-17T06:40:45.805Z,0
2017-02-17T06:41:55.129Z,0
2017-02-17T06:43:04.444Z,0
2017-02-17T06:44:13.777Z,0
2017-02-17T06:45:23.505Z,0
2017-02-17T06:46:32.412Z,0
2017-02-17T06:47:41.385Z,0
2017-02-17T06:48:50.716Z,0
2017-02-17T06:50:00.205Z,0
2017-02-17T06:51:10.350Z,0
2017-02-17T06:52:19.695Z,0
2017-02-17T06:53:28.641Z,0
2017-02-17T06:54:38.363Z,0
2017-02-17T06:55:47.353Z,0
2017-02-17T06:56:56.284Z,0
2017-02-17T06:58:05.224Z,0
2017-02-17T06:59:14.551Z,0
2017-02-17T07:00:23.479Z,0
2017-02-17T07:01:33.232Z,0
2017-02-17T07:02:42.549Z,0
2017-02-17T07:03:52.328Z,5
2017-02-17T07:05:02.084Z,5
2017-02-17T07:06:11.868Z,5
2017-02-17T07:07:21.630Z,5
2017-02-17T07:08:30.573Z,5
2017-02-17T07:09:39.910Z,5
2017-02-17T07:10:49.255Z,5
2017-02-17T07:11:58.597Z,5
2017-02-17T07:13:08.431Z,5
2017-02-17T07:14:17.750Z,5
2017-02-17T07:15:27.492Z,5
2017-02-17T07:16:37.656Z,5
2017-02-17T07:17:46.999Z,5
2017-02-17T07:18:56.805Z,5
2017-02-17T07:20:06.149Z,5
2017-02-17T07:21:15.470Z,5
2017-02-17T07:22:24.395Z,5
2017-02-17T07:23:34.544Z,5
2017-02-17T07:24:43.863Z,5
2017-02-17T07:25:53.212Z,5
2017-02-17T07:27:02.541Z,5
2017-02-17T07:28:11.869Z,5
2017-02-17T07:29:21.614Z,5
2017-02-17T07:30:31.613Z,5
2017-02-17T07:31:41.361Z,5
2017-02-17T07:32:50.269Z,5
2017-02-17T07:34:00.377Z,5
2017-02-17T07:35:10.583Z,0
2017-02-17T07:36:19.941Z,5
2017-02-17T07:37:29.255Z,5
2017-02-17T07:38:38.956Z,5
2017-02-17T07:39:48.291Z,5
2017-02-17T07:40:57.668Z,5
2017-02-17T07:42:07.458Z,5
2017-02-17T07:43:17.203Z,10
2017-02-17T07:44:26.116Z,10
2017-02-17T07:45:35.031Z,10
2017-02-17T07:46:44.368Z,15
2017-02-17T07:47:54.169Z,20
2017-02-17T07:49:03.912Z,20
2017-02-17T07:50:13.251Z,20
2017-02-17T07:51:22.278Z,25
2017-02-17T07:52:31.614Z,25
2017-02-17T07:53:40.678Z,20
2017-02-17T07:54:50.029Z,25
2017-02-17T07:55:58.966Z,30
2017-02-17T07:57:08.718Z,30
2017-02-17T07:58:18.062Z,30
2017-02-17T07:59:27.950Z,30
2017-02-17T08:00:36.865Z,30
2017-02-17T08:01:47.017Z,35
2017-02-17T08:02:56.350Z,35
2017-02-17T08:04:06.531Z,35
2017-02-17T08:05:16.556Z,30
2017-02-17T08:06:26.285Z,35
2017-02-17T08:07:36.012Z,30
2017-02-17T08:08:44.939Z,30
2017-02-17T08:09:54.263Z,30
2017-02-17T08:11:04.477Z,25
2017-02-17T08:12:13.810Z,30
2017-02-17T08:13:23.134Z,35
2017-02-17T08:14:32.471Z,30
2017-02-17T08:15:41.397Z,25
2017-02-17T08:16:50.369Z,20
2017-02-17T08:17:59.704Z,20
2017-02-17T08:19:09.435Z,25
2017-02-17T08:20:18.770Z,25
2017-02-17T08:21:28.494Z,25
2017-02-17T08:22:37.611Z,25
2017-02-17T08:23:47.337Z,25
2017-02-17T08:24:56.661Z,30
2017-02-17T08:26:06.407Z,35
2017-02-17T08:27:15.355Z,40
2017-02-17T08:28:25.263Z,30
2017-02-17T08:29:34.995Z,25
2017-02-17T08:30:44.313Z,25
2017-02-17T08:31:54.072Z,30
2017-02-17T08:33:03.800Z,45
2017-02-17T08:34:13.284Z,55
2017-02-17T08:35:22.606Z,55
2017-02-17T08:36:32.332Z,50
2017-02-17T08:37:41.259Z,45
2017-02-17T08:38:50.590Z,50
2017-02-17T08:39:59.978Z,50
2017-02-17T08:41:10.129Z,65
2017-02-17T08:42:19.054Z,70
2017-02-17T08:43:27.971Z,75
2017-02-17T08:44:37.307Z,80
2017-02-17T08:45:46.525Z,75
2017-02-17T08:46:55.850Z,75
2017-02-17T08:48:05.580Z,80
2017-02-17T08:49:15.334Z,80
2017-02-17T08:50:25.082Z,80
2017-02-17T08:51:34.891Z,90
2017-02-17T08:52:45.022Z,90
2017-02-17T08:53:54.761Z,80
2017-02-17T08:55:04.106Z,80
2017-02-17T08:56:13.435Z,65
2017-02-17T08:57:23.628Z,60
2017-02-17T08:58:32.535Z,55
2017-02-17T08:59:42.272Z,60
2017-02-17T09:00:51.186Z,70
2017-02-17T09:02:00.513Z,85
2017-02-17T09:03:09.903Z,85
2017-02-17T09:04:18.831Z,90
2017-02-17T09:05:27.739Z,95
2017-02-17T09:06:37.065Z,115
2017-02-17T09:07:45.996Z,120
2017-02-17T09:08:55.328Z,115
2017-02-17T09:10:04.672Z,100
2017-02-17T09:11:14.822Z,105
2017-02-17T09:12:24.166Z,110
2017-02-17T09:13:33.909Z,115
2017-02-17T09:14:42.984Z,105
2017-02-17T09:15:51.894Z,90
2017-02-17T09:17:01.642Z,75
2017-02-17T09:18:10.959Z,80
2017-02-17T09:19:20.272Z,85
2017-02-17T09:20:30.046Z,95
2017-02-17T09:21:40.219Z,120
2017-02-17T09:22:49.950Z,105
2017-02-17T09:23:59.297Z,85
2017-02-17T09:25:09.029Z,95
2017-02-17T09:26:18.527Z,105
2017-02-17T09:27:27.454Z,115
2017-02-17T09:28:36.792Z,95
2017-02-17T09:29:46.524Z,85
2017-02-17T09:30:56.257Z,80
2017-02-17T09:32:05.172Z,80
2017-02-17T09:33:14.903Z,65
2017-02-17T09:34:25.037Z,70
2017-02-17T09:35:34.786Z,70
2017-02-17T09:36:43.725Z,65
2017-02-17T09:37:52.716Z,70
2017-02-17T09:39:02.052Z,65
2017-02-17T09:40:11.410Z,75
2017-02-17T09:41:21.145Z,90
2017-02-17T09:42:31.289Z,135
2017-02-17T09:43:40.663Z,130
2017-02-17T09:44:50.401Z,115
2017-02-17T09:46:00.138Z,95
2017-02-17T09:47:09.461Z,85
2017-02-17T09:48:19.189Z,75
2017-02-17T09:49:28.611Z,80
2017-02-17T09:50:37.944Z,90
2017-02-17T09:51:46.890Z,85
2017-02-17T09:52:56.673Z,100
2017-02-17T09:54:06.020Z,115
2017-02-17T09:55:16.159Z,105
2017-02-17T09:56:25.493Z,90
2017-02-17T09:57:35.221Z,100
2017-02-17T09:58:45.358Z,95
2017-02-17T09:59:55.103Z,85
2017-02-17T10:01:05.932Z,75
2017-02-17T10:02:14.846Z,70
2017-02-17T10:03:24.573Z,80
2017-02-17T10:04:34.322Z,80
2017-02-17T10:05:44.063Z,80
2017-02-17T10:06:53.556Z,70
2017-02-17T10:08:02.888Z,70
2017-02-17T10:09:12.212Z,75
2017-02-17T10:10:21.548Z,80
2017-02-17T10:11:31.319Z,80
2017-02-17T10:12:40.914Z,90
2017-02-17T10:13:50.651Z,80
2017-02-17T10:15:00.844Z,70
2017-02-17T10:16:10.196Z,80
2017-02-17T10:17:19.555Z,80
2017-02-17T10:18:28.591Z,80
2017-02-17T10:19:38.338Z,90
2017-02-17T10:20:47.259Z,90
2017-02-17T10:21:56.623Z,80
2017-02-17T10:23:05.559Z,70
2017-02-17T10:24:14.595Z,65
2017-02-17T10:25:23.503Z,80
2017-02-17T10:26:32.863Z,90
2017-02-17T10:27:41.781Z,115
2017-02-17T10:28:50.703Z,165
2017-02-17T10:29:59.871Z,205
2017-02-17T10:31:09.212Z,155
2017-02-17T10:32:18.141Z,110
2017-02-17T10:33:27.890Z,85
2017-02-17T10:34:38.048Z,70
2017-02-17T10:35:48.287Z,75
2017-02-17T10:36:58.049Z,65
2017-02-17T10:38:07.782Z,60
2017-02-17T10:39:17.532Z,75
2017-02-17T10:40:27.277Z,75
2017-02-17T10:41:36.261Z,80
2017-02-17T10:42:45.191Z,80
2017-02-17T10:43:54.110Z,85
2017-02-17T10:45:04.273Z,90
2017-02-17T10:46:13.211Z,90
2017-02-17T10:47:22.560Z,80
2017-02-17T10:48:31.911Z,65
2017-02-17T10:49:41.649Z,60
2017-02-17T10:50:50.968Z,65
2017-02-17T10:51:59.887Z,65
2017-02-17T10:53:08.927Z,80
2017-02-17T10:54:18.283Z,90
2017-02-17T10:55:27.217Z,80
2017-02-17T10:56:36.552Z,65
2017-02-17T10:57:46.277Z,75
2017-02-17T10:58:55.873Z,95
2017-02-17T11:00:05.193Z,115
2017-02-17T11:01:14.519Z,130
2017-02-17T11:02:23.458Z,95
2017-02-17T11:03:32.799Z,85
2017-02-17T11:04:42.831Z,85
2017-02-17T11:05:52.573Z,70
2017-02-17T11:07:01.901Z,70
2017-02-17T11:08:11.227Z,65
2017-02-17T11:09:21.378Z,55
2017-02-17T11:10:30.859Z,55
2017-02-17T11:11:39.791Z,70
2017-02-17T11:12:49.533Z,65
2017-02-17T11:13:59.679Z,75
2017-02-17T11:15:09.006Z,85
2017-02-17T11:16:18.742Z,85
2017-02-17T11:17:28.885Z,85
2017-02-17T11:18:38.640Z,85
2017-02-17T11:19:47.976Z,90
2017-02-17T11:20:57.297Z,80
2017-02-17T11:22:07.287Z,85
2017-02-17T11:23:16.625Z,75
2017-02-17T11:24:25.970Z,70
2017-02-17T11:25:35.300Z,60
2017-02-17T11:26:44.648Z,65
2017-02-17T11:27:53.722Z,95
2017-02-17T11:29:03.852Z,80
2017-02-17T11:30:13.174Z,75
2017-02-17T11:31:22.091Z,95
2017-02-17T11:32:31.831Z,100
2017-02-17T11:33:40.855Z,165
2017-02-17T11:34:50.182Z,150
2017-02-17T11:35:59.135Z,115
2017-02-17T11:37:09.684Z,100
2017-02-17T11:38:19.022Z,105
2017-02-17T11:39:28.419Z,95
2017-02-17T11:40:37.738Z,125
2017-02-17T11:41:46.673Z,130
2017-02-17T11:42:56.823Z,150
2017-02-17T11:44:06.199Z,150
2017-02-17T11:45:15.683Z,145
2017-02-17T11:46:25.422Z,125
2017-02-17T11:47:35.161Z,115
2017-02-17T11:48:44.918Z,95
2017-02-17T11:49:54.250Z,80
2017-02-17T11:51:03.728Z,75
2017-02-17T11:52:13.075Z,70
2017-02-17T11:53:22.000Z,60
2017-02-17T11:54:30.930Z,55
2017-02-17T11:55:39.862Z,50
2017-02-17T11:56:49.662Z,45
2017-02-17T11:57:59.401Z,45
2017-02-17T11:59:09.141Z,45
2017-02-17T12:00:18.063Z,55
2017-02-17T12:01:26.980Z,60
2017-02-17T12:02:36.360Z,70
2017-02-17T12:03:45.694Z,70
2017-02-17T12:04:55.026Z,85
2017-02-17T12:06:04.764Z,100
2017-02-17T12:07:14.108Z,95
2017-02-17T12:08:24.303Z,95
2017-02-17T12:09:33.633Z,115
2017-02-17T12:10:43.805Z,95
2017-02-17T12:11:53.541Z,75
2017-02-17T12:13:02.472Z,85
2017-02-17T12:14:11.546Z,80
2017-02-17T12:15:20.882Z,75
2017-02-17T12:16:29.801Z,80
2017-02-17T12:17:39.124Z,85
2017-02-17T12:18:48.463Z,65
2017-02-17T12:19:58.045Z,70
2017-02-17T12:21:07.374Z,70
2017-02-17T12:22:16.710Z,70
2017-02-17T12:23:26.039Z,75
2017-02-17T12:24:34.965Z,65
2017-02-17T12:25:43.966Z,50
2017-02-17T12:26:53.699Z,45
2017-02-17T12:28:02.621Z,65
2017-02-17T12:29:11.974Z,75
2017-02-17T12:30:21.295Z,80
2017-02-17T12:31:31.183Z,70
2017-02-17T12:32:40.925Z,70
2017-02-17T12:33:50.255Z,100
2017-02-17T12:34:59.984Z,150
2017-02-17T12:36:09.309Z,175
2017-02-17T12:37:19.598Z,135
2017-02-17T12:38:28.954Z,150
2017-02-17T12:39:38.284Z,170
2017-02-17T12:40:47.637Z,220
2017-02-17T12:41:58.217Z,250
2017-02-17T12:43:07.684Z,230
2017-02-17T12:44:17.408Z,160
2017-02-17T12:45:26.741Z,165
2017-02-17T12:46:36.063Z,155
2017-02-17T12:47:45.005Z,145
2017-02-17T12:48:54.756Z,195
2017-02-17T12:50:04.901Z,210
2017-02-17T12:51:14.665Z,195
2017-02-17T12:52:24.007Z,160
2017-02-17T12:53:33.361Z,135
2017-02-17T12:54:42.427Z,130
2017-02-17T12:55:52.165Z,160
2017-02-17T12:57:01.487Z,175
2017-02-17T12:58:10.819Z,135
2017-02-17T12:59:20.975Z,155
2017-02-17T13:00:30.676Z,150
2017-02-17T13:01:40.426Z,140
2017-02-17T13:02:51.033Z,135
2017-02-17T13:04:00.383Z,110
2017-02-17T13:05:10.130Z,110
2017-02-17T13:06:20.705Z,85
2017-02-17T13:07:30.474Z,90
2017-02-17T13:08:39.401Z,100
2017-02-17T13:09:48.740Z,115
2017-02-17T13:10:58.074Z,100
2017-02-17T13:12:07.985Z,90
2017-02-17T13:13:17.800Z,110
2017-02-17T13:14:26.775Z,100
2017-02-17T13:15:35.687Z,110
2017-02-17T13:16:45.025Z,115
2017-02-17T13:17:54.445Z,120
2017-02-17T13:19:04.190Z,115
2017-02-17T13:20:13.540Z,95
2017-02-17T13:21:22.886Z,85
2017-02-17T13:22:32.637Z,90
2017-02-17T13:23:42.051Z,105
2017-02-17T13:24:51.385Z,115
2017-02-17T13:26:00.727Z,80
2017-02-17T13:27:09.640Z,60
2017-02-17T13:28:18.980Z,55
2017-02-17T13:29:28.140Z,60
2017-02-17T13:30:37.467Z,55
2017-02-17T13:31:46.808Z,65
2017-02-17T13:32:56.559Z,80
2017-02-17T13:34:06.831Z,85
2017-02-17T13:35:16.865Z,80
2017-02-17T13:36:26.628Z,85
2017-02-17T13:37:36.376Z,85
2017-02-17T13:38:45.300Z,80
2017-02-17T13:39:54.633Z,75
2017-02-17T13:41:03.703Z,75
2017-02-17T13:42:13.475Z,80
2017-02-17T13:43:22.821Z,80
2017-02-17T13:44:32.143Z,80
2017-02-17T13:45:42.731Z,85
2017-02-17T13:46:52.626Z,85
2017-02-17T13:48:01.983Z,70
2017-02-17T13:49:13.114Z,80
2017-02-17T13:50:23.065Z,85
2017-02-17T13:51:32.390Z,75
2017-02-17T13:52:41.502Z,65
2017-02-17T13:53:51.659Z,60
2017-02-17T13:55:00.583Z,75
2017-02-17T13:56:09.915Z,100
2017-02-17T13:57:18.840Z,105
2017-02-17T13:58:28.845Z,100
2017-02-17T13:59:38.601Z,95
2017-02-17T14:00:48.003Z,85
2017-02-17T14:01:57.347Z,85
2017-02-17T14:03:07.500Z,90
2017-02-17T14:04:16.938Z,105
2017-02-17T14:05:26.288Z,115
2017-02-17T14:06:36.222Z,115
2017-02-17T14:07:45.962Z,110
2017-02-17T14:08:55.316Z,105
2017-02-17T14:10:05.462Z,95
2017-02-17T14:11:15.092Z,100
2017-02-17T14:12:24.019Z,110
2017-02-17T14:13:33.804Z,105
2017-02-17T14:14:42.752Z,110
2017-02-17T14:15:51.787Z,130
2017-02-17T14:17:01.922Z,145
2017-02-17T14:18:11.262Z,195
2017-02-17T14:19:20.577Z,200
2017-02-17T14:20:29.902Z,150
2017-02-17T14:21:40.095Z,130
2017-02-17T14:22:49.446Z,115
2017-02-17T14:23:58.778Z,110
2017-02-17T14:25:08.525Z,100
2017-02-17T14:26:17.849Z,75
2017-02-17T14:27:27.485Z,55
2017-02-17T14:28:36.826Z,40
2017-02-17T14:29:46.568Z,35
2017-02-17T14:30:55.914Z,40
2017-02-17T14:32:05.324Z,45
2017-02-17T14:33:14.726Z,50
2017-02-17T14:34:23.659Z,55
2017-02-17T14:35:33.005Z,70
2017-02-17T14:36:42.772Z,65
2017-02-17T14:37:52.091Z,65
2017-02-17T14:39:01.730Z,70
2017-02-17T14:40:11.151Z,60
2017-02-17T14:41:20.063Z,50
2017-02-17T14:42:30.208Z,50
2017-02-17T14:43:39.949Z,40
2017-02-17T14:44:50.225Z,35
2017-02-17T14:45:59.581Z,35
2017-02-17T14:47:08.924Z,30
2017-02-17T14:48:18.659Z,25
2017-02-17T14:49:27.594Z,20
2017-02-17T14:50:37.387Z,25
2017-02-17T14:51:46.344Z,30
2017-02-17T14:52:55.702Z,40
2017-02-17T14:54:05.490Z,40
2017-02-17T14:55:14.866Z,35
2017-02-17T14:56:24.356Z,35
2017-02-17T14:57:33.287Z,35
2017-02-17T14:58:43.033Z,35
2017-02-17T14:59:52.372Z,35
2017-02-17T15:01:02.113Z,30
2017-02-17T15:02:11.902Z,30
2017-02-17T15:03:21.223Z,20
2017-02-17T15:04:30.559Z,20
2017-02-17T15:05:40.703Z,15
2017-02-17T15:06:49.633Z,15
2017-02-17T15:07:59.626Z,15
2017-02-17T15:09:09.378Z,15
2017-02-17T15:10:19.105Z,15
2017-02-17T15:11:28.831Z,20
2017-02-17T15:12:38.644Z,20
2017-02-17T15:13:48.077Z,15
2017-02-17T15:14:57.814Z,15
2017-02-17T15:16:07.163Z,10
2017-02-17T15:17:16.890Z,10
2017-02-17T15:18:25.814Z,10
2017-02-17T15:19:35.703Z,5
2017-02-17T15:20:44.646Z,5
2017-02-17T15:21:54.418Z,5
2017-02-17T15:23:03.751Z,10
2017-02-17T15:24:13.893Z,10
2017-02-17T15:25:23.514Z,10
2017-02-17T15:26:33.270Z,15
2017-02-17T15:27:43.405Z,15
2017-02-17T15:28:53.150Z,15
2017-02-17T15:30:02.480Z,15
2017-02-17T15:31:12.531Z,20
2017-02-17T15:32:21.900Z,25
2017-02-17T15:33:32.078Z,30
2017-02-17T15:34:41.410Z,20
2017-02-17T15:35:51.574Z,15
2017-02-17T15:37:01.079Z,10
2017-02-17T15:38:11.234Z,5
2017-02-17T15:39:20.192Z,10
2017-02-17T15:40:29.927Z,5
2017-02-17T15:41:39.653Z,5
2017-02-17T15:42:49.546Z,5
2017-02-17T15:43:58.495Z,5
2017-02-17T15:45:07.440Z,5
2017-02-17T15:46:16.782Z,10
2017-02-17T15:47:26.153Z,5
2017-02-17T15:48:36.047Z,10
2017-02-17T15:49:44.970Z,10
2017-02-17T15:50:54.323Z,10
2017-02-17T15:52:04.071Z,5
2017-02-17T15:53:14.233Z,10
2017-02-17T15:54:23.650Z,10
2017-02-17T15:55:33.009Z,10
2017-02-17T15:56:42.765Z,10
2017-02-17T15:57:52.110Z,5
2017-02-17T15:59:01.861Z,5
2017-02-17T16:00:12.001Z,5
2017-02-17T16:01:21.764Z,5
2017-02-17T16:02:32.311Z,5
2017-02-17T16:03:41.644Z,5
2017-02-17T16:04:50.960Z,5
2017-02-17T16:06:00.392Z,5
2017-02-17T16:07:09.332Z,5
2017-02-17T16:08:18.698Z,5
2017-02-17T16:09:28.455Z,0
2017-02-17T16:10:37.372Z,0
2017-02-17T16:11:47.147Z,5
2017-02-17T16:12:57.313Z,0
2017-02-17T16:14:06.698Z,0
2017-02-17T16:15:15.614Z,0
2017-02-17T16:16:24.928Z,0
2017-02-17T16:17:34.657Z,0
2017-02-17T16:18:44.397Z,0
2017-02-17T16:19:53.727Z,0
2017-02-17T16:21:03.455Z,0
2017-02-17T16:22:12.775Z,0
2017-02-17T16:23:22.360Z,0
2017-02-17T16:24:32.095Z,0
2017-02-17T16:25:42.650Z,0
2017-02-17T16:26:51.993Z,0
2017-02-17T16:28:01.735Z,0
2017-02-17T16:29:11.626Z,0
2017-02-17T16:30:20.540Z,0
2017-02-17T16:31:29.459Z,0
2017-02-17T16:32:38.801Z,0
2017-02-17T16:33:48.943Z,0
2017-02-17T16:34:58.999Z,0
2017-02-17T16:36:08.312Z,0
2017-02-17T16:37:18.045Z,0
2017-02-17T16:38:27.373Z,0
2017-02-17T16:39:36.305Z,0
2017-02-17T16:40:45.783Z,0
2017-02-17T16:41:55.545Z,0
2017-02-17T16:43:04.472Z,0
2017-02-17T16:44:13.795Z,0
2017-02-17T16:45:23.145Z,0